Overcombe, United Kingdom
Current Conditions -  °F | °C
As of 11:50 PM on Monday 22 Dec 2014 (Local Time) from EGDY Reporting Station
Overcast Overcast  
Wind Chill: 54°   Ceiling: 2900
Heat Index: 54°   Visibility: 6mi
Dew Point: 45°   Wind: 15mph
Humidity: 72%   Direction: 250°WSW
Pressure: 30.12"   Gusts: NA
Location:  50.64°N, 2.43°W
Report Text: EGDY 222350Z AUTO 25013KT 9999 OVC029/// 12/07 Q1020 RERA
Loading
Personal Weather Stations






























Interactive Weather Map New forecast layout! Learn more

10-Day Weather Forecast

Advertisements
Track Severe Weather on mobile